Time;durP1;ratioP1;P1;durP2;ratioP2;P2;SDS_P1;SDS_P2;PMS_P1;PMS_P2;Temp;Humidity;BMP_temperature;BMP_pressure;BME280_temperature;BME280_humidity;BME280_pressure;Samples;Min_cycle;Max_cycle;Signal;HPM_P1;HPM_P2
2022/12/02 00:01:13;;;;;;;0.00;0.00;;;;;;;;;;4993365;28;20046;-87
2022/12/02 00:03:40;;;;;;;0.10;0.10;;;;;;;;;;4993146;28;20039;-88
2022/12/02 00:06:13;;;;;;;0.00;0.00;;;;;;;;;;4993201;28;20483;-89
2022/12/02 00:08:38;;;;;;;0.00;0.00;;;;;;;;;;4993152;28;20042;-88
2022/12/02 00:11:08;;;;;;;0.00;0.00;;;;;;;;;;4993172;28;20052;-88
2022/12/02 00:13:40;;;;;;;1.55;0.17;;;;;;;;;;4993162;28;20077;-88
2022/12/02 00:16:12;;;;;;;0.00;0.00;;;;;;;;;;4993153;28;20038;-89
2022/12/02 00:18:38;;;;;;;0.00;0.00;;;;;;;;;;4992986;28;20034;-88
2022/12/02 00:21:04;;;;;;;0.40;0.10;;;;;;;;;;4992987;28;20093;-90
2022/12/02 00:23:30;;;;;;;0.45;0.10;;;;;;;;;;4991972;28;20046;-89
2022/12/02 00:25:56;;;;;;;0.20;0.00;;;;;;;;;;4993316;28;20045;-89
2022/12/02 00:28:22;;;;;;;0.00;0.00;;;;;;;;;;4993214;28;20049;-88
2022/12/02 00:30:48;;;;;;;0.00;0.00;;;;;;;;;;4992810;28;20039;-89
2022/12/02 00:33:15;;;;;;;0.40;0.10;;;;;;;;;;4992902;28;20101;-88
2022/12/02 00:35:41;;;;;;;0.00;0.00;;;;;;;;;;4992807;28;20042;-88
2022/12/02 00:38:07;;;;;;;0.00;0.00;;;;;;;;;;4992307;28;20096;-89
2022/12/02 00:40:33;;;;;;;0.00;0.00;;;;;;;;;;4992604;28;20035;-88
2022/12/02 00:46:30;;;;;;;0.00;0.00;;;;;;;;;;4992832;28;20057;-89
2022/12/02 00:48:30;;;;;;;0.00;0.00;;;;;;;;;;4992273;28;20046;-88
2022/12/02 00:50:56;;;;;;;0.00;0.00;;;;;;;;;;4992821;28;20081;-89
2022/12/02 00:53:22;;;;;;;0.00;0.00;;;;;;;;;;4992421;28;20542;-88
2022/12/02 00:55:48;;;;;;;0.00;0.00;;;;;;;;;;4992486;28;20046;-88
2022/12/02 00:58:14;;;;;;;0.00;0.00;;;;;;;;;;4991997;28;20054;-88
2022/12/02 01:00:40;;;;;;;0.28;0.10;;;;;;;;;;4992416;28;20487;-89
2022/12/02 01:03:06;;;;;;;0.10;0.00;;;;;;;;;;4992217;28;20034;-88
2022/12/02 01:05:32;;;;;;;0.00;0.00;;;;;;;;;;4992572;28;20061;-88
2022/12/02 01:07:58;;;;;;;0.00;0.00;;;;;;;;;;4992510;28;20680;-88
2022/12/02 01:10:24;;;;;;;0.00;0.00;;;;;;;;;;4992101;28;20097;-89
2022/12/02 01:12:50;;;;;;;0.00;0.00;;;;;;;;;;4992807;28;20129;-88
2022/12/02 01:15:16;;;;;;;0.00;0.00;;;;;;;;;;4992117;28;20042;-89
2022/12/02 01:17:42;;;;;;;0.00;0.00;;;;;;;;;;4992292;28;20046;-88
2022/12/02 01:20:08;;;;;;;0.00;0.00;;;;;;;;;;4992245;28;20395;-88
2022/12/02 01:22:34;;;;;;;0.00;0.00;;;;;;;;;;4992565;28;20043;-88
2022/12/02 01:25:00;;;;;;;0.00;0.00;;;;;;;;;;4992035;28;20050;-88
2022/12/02 01:27:26;;;;;;;0.17;0.03;;;;;;;;;;4992429;28;20467;-89
2022/12/02 01:29:52;;;;;;;0.00;0.00;;;;;;;;;;4992190;28;20177;-88
2022/12/02 01:32:19;;;;;;;0.00;0.00;;;;;;;;;;4992241;28;20097;-89
2022/12/02 01:34:46;;;;;;;0.00;0.00;;;;;;;;;;4994702;28;20057;-89
2022/12/02 01:37:12;;;;;;;0.00;0.00;;;;;;;;;;4995966;28;20046;-89
2022/12/02 01:39:38;;;;;;;0.00;0.00;;;;;;;;;;4995695;28;20034;-89
2022/12/02 01:42:04;;;;;;;0.00;0.00;;;;;;;;;;4996201;28;20045;-89
2022/12/02 01:44:30;;;;;;;0.00;0.00;;;;;;;;;;4996122;28;20385;-88
2022/12/02 01:46:56;;;;;;;0.00;0.00;;;;;;;;;;4995977;28;20055;-89
2022/12/02 01:49:22;;;;;;;0.00;0.00;;;;;;;;;;4995866;28;20053;-88
2022/12/02 01:51:48;;;;;;;0.00;0.00;;;;;;;;;;4995969;28;20042;-88
2022/12/02 01:54:14;;;;;;;0.00;0.00;;;;;;;;;;4995663;28;20483;-89
2022/12/02 01:56:40;;;;;;;0.00;0.00;;;;;;;;;;4995575;28;20054;-90
2022/12/02 01:59:06;;;;;;;0.00;0.00;;;;;;;;;;4995259;28;20050;-89
2022/12/02 02:01:33;;;;;;;0.00;0.00;;;;;;;;;;4995537;28;20043;-89
2022/12/02 02:04:00;;;;;;;0.00;0.00;;;;;;;;;;4995244;28;20081;-88
2022/12/02 02:06:27;;;;;;;0.00;0.00;;;;;;;;;;4995382;28;20042;-88
2022/12/02 02:08:53;;;;;;;0.00;0.00;;;;;;;;;;4994981;28;20049;-88
2022/12/02 02:11:19;;;;;;;0.00;0.00;;;;;;;;;;4995434;28;20400;-89
2022/12/02 02:13:45;;;;;;;0.00;0.00;;;;;;;;;;4995479;28;20375;-88
2022/12/02 02:16:13;;;;;;;0.00;0.00;;;;;;;;;;4995232;28;20137;-90
2022/12/02 02:18:39;;;;;;;0.00;0.00;;;;;;;;;;4994999;28;20094;-88
2022/12/02 02:21:07;;;;;;;0.00;0.00;;;;;;;;;;4995211;28;20042;-88
2022/12/02 02:23:32;;;;;;;0.00;0.00;;;;;;;;;;4995301;28;20053;-88
2022/12/02 02:25:59;;;;;;;0.00;0.00;;;;;;;;;;4994894;28;20042;-88
2022/12/02 02:28:25;;;;;;;0.52;0.10;;;;;;;;;;4995116;28;20034;-88
2022/12/02 02:30:53;;;;;;;0.00;0.00;;;;;;;;;;4994804;28;20093;-89
2022/12/02 02:33:19;;;;;;;0.00;0.00;;;;;;;;;;4995260;28;20508;-88
2022/12/02 02:35:45;;;;;;;0.00;0.00;;;;;;;;;;4994672;28;20042;-87
2022/12/02 02:38:13;;;;;;;0.00;0.00;;;;;;;;;;4994640;28;20046;-87
2022/12/02 02:40:39;;;;;;;0.00;0.00;;;;;;;;;;4995085;28;20486;-89
2022/12/02 02:43:05;;;;;;;0.00;0.00;;;;;;;;;;4995006;28;20038;-88
2022/12/02 02:45:33;;;;;;;0.00;0.00;;;;;;;;;;4993615;28;20407;-88
2022/12/02 02:47:59;;;;;;;0.00;0.00;;;;;;;;;;4994956;28;20535;-91
2022/12/02 02:50:26;;;;;;;0.00;0.00;;;;;;;;;;4994631;28;20499;-89
2022/12/02 02:52:52;;;;;;;0.00;0.00;;;;;;;;;;4994730;28;20042;-89
2022/12/02 02:55:19;;;;;;;0.00;0.00;;;;;;;;;;4994803;28;20038;-90
2022/12/02 02:57:46;;;;;;;0.00;0.00;;;;;;;;;;4994834;28;20038;-89
2022/12/02 03:00:12;;;;;;;0.00;0.00;;;;;;;;;;4994370;28;20062;-88
2022/12/02 03:02:38;;;;;;;0.13;0.00;;;;;;;;;;4994559;28;20049;-88
2022/12/02 03:05:05;;;;;;;0.00;0.00;;;;;;;;;;4994369;28;20092;-89
2022/12/02 03:07:31;;;;;;;0.00;0.00;;;;;;;;;;4994690;28;20038;-88
2022/12/02 03:09:57;;;;;;;0.00;0.00;;;;;;;;;;4994200;28;20049;-89
2022/12/02 03:12:23;;;;;;;0.00;0.00;;;;;;;;;;4994438;28;20224;-88
2022/12/02 03:14:50;;;;;;;0.00;0.00;;;;;;;;;;4994165;28;20085;-88
2022/12/02 03:17:16;;;;;;;0.00;0.00;;;;;;;;;;4994432;28;20078;-88
2022/12/02 03:19:42;;;;;;;0.00;0.00;;;;;;;;;;4994033;28;20192;-89
2022/12/02 03:22:09;;;;;;;0.00;0.00;;;;;;;;;;4994402;28;20042;-89
2022/12/02 03:24:37;;;;;;;0.00;0.00;;;;;;;;;;4994087;28;20042;-89
2022/12/02 03:27:04;;;;;;;0.00;0.00;;;;;;;;;;4994469;28;20129;-88
2022/12/02 03:29:30;;;;;;;0.00;0.00;;;;;;;;;;4993943;28;20550;-88
2022/12/02 03:31:58;;;;;;;0.10;0.10;;;;;;;;;;4993728;28;20435;-88
2022/12/02 03:34:24;;;;;;;0.00;0.00;;;;;;;;;;4993706;28;20050;-88
2022/12/02 03:36:50;;;;;;;0.00;0.00;;;;;;;;;;4994201;28;20601;-87
2022/12/02 03:39:16;;;;;;;0.00;0.00;;;;;;;;;;4993810;28;20039;-88
2022/12/02 03:41:42;;;;;;;0.52;0.15;;;;;;;;;;4993601;28;20096;-88
2022/12/02 03:44:08;;;;;;;0.00;0.00;;;;;;;;;;4994046;28;20034;-89
2022/12/02 03:46:34;;;;;;;0.00;0.00;;;;;;;;;;4993866;28;20045;-88
2022/12/02 03:49:01;;;;;;;0.00;0.00;;;;;;;;;;4993472;28;20137;-88
2022/12/02 03:51:27;;;;;;;0.00;0.00;;;;;;;;;;4993409;28;20042;-87
2022/12/02 03:53:53;;;;;;;0.00;0.00;;;;;;;;;;4993675;28;20049;-88
2022/12/02 03:56:19;;;;;;;0.00;0.00;;;;;;;;;;4992895;28;20181;-89
2022/12/02 03:58:47;;;;;;;0.00;0.00;;;;;;;;;;4993074;28;20066;-88
2022/12/02 04:01:14;;;;;;;0.00;0.00;;;;;;;;;;4993383;28;20050;-88
2022/12/02 04:03:40;;;;;;;0.00;0.00;;;;;;;;;;4993550;28;20391;-90
2022/12/02 04:06:06;;;;;;;0.45;0.30;;;;;;;;;;4993091;28;20038;-88
2022/12/02 04:08:32;;;;;;;0.00;0.00;;;;;;;;;;4993138;28;20396;-89
2022/12/02 04:10:59;;;;;;;0.00;0.00;;;;;;;;;;4993134;28;20038;-88
2022/12/02 04:13:26;;;;;;;0.00;0.00;;;;;;;;;;4993198;28;20042;-88
2022/12/02 04:15:52;;;;;;;0.00;0.00;;;;;;;;;;4993141;28;20043;-88
2022/12/02 04:18:19;;;;;;;0.00;0.00;;;;;;;;;;4992960;28;20054;-88
2022/12/02 04:20:45;;;;;;;0.00;0.00;;;;;;;;;;4993460;28;20050;-88
2022/12/02 04:23:11;;;;;;;0.00;0.00;;;;;;;;;;4993224;28;20039;-89
2022/12/02 04:25:37;;;;;;;0.00;0.00;;;;;;;;;;4992861;28;20034;-89
2022/12/02 04:28:03;;;;;;;0.00;0.00;;;;;;;;;;4993263;28;20065;-89
2022/12/02 04:30:29;;;;;;;0.00;0.00;;;;;;;;;;4993005;28;20049;-89
2022/12/02 04:32:55;;;;;;;0.00;0.00;;;;;;;;;;4993115;28;20442;-89
2022/12/02 04:35:21;;;;;;;0.00;0.00;;;;;;;;;;4992688;28;20129;-89
2022/12/02 04:37:48;;;;;;;0.00;0.00;;;;;;;;;;4992514;28;20042;-88
2022/12/02 04:40:14;;;;;;;0.00;0.00;;;;;;;;;;4992861;28;20045;-87
2022/12/02 04:42:40;;;;;;;0.00;0.00;;;;;;;;;;4993108;28;20038;-88
2022/12/02 04:45:06;;;;;;;0.00;0.00;;;;;;;;;;4992687;28;20038;-88
2022/12/02 04:47:32;;;;;;;0.00;0.00;;;;;;;;;;4992331;28;20054;-89
2022/12/02 04:49:58;;;;;;;0.20;0.17;;;;;;;;;;4992878;28;20050;-88
2022/12/02 04:52:24;;;;;;;0.00;0.00;;;;;;;;;;4992295;28;20045;-88
2022/12/02 04:54:50;;;;;;;0.00;0.00;;;;;;;;;;4992399;28;20442;-87
2022/12/02 04:57:15;;;;;;;0.00;0.00;;;;;;;;;;4992241;28;20046;-89
2022/12/02 04:59:41;;;;;;;0.00;0.00;;;;;;;;;;4992296;28;20145;-88
2022/12/02 05:02:07;;;;;;;0.00;0.00;;;;;;;;;;4992393;28;20380;-89
2022/12/02 05:04:33;;;;;;;0.00;0.00;;;;;;;;;;4992521;28;20122;-87
2022/12/02 05:06:59;;;;;;;0.00;0.00;;;;;;;;;;4992169;28;20073;-88
2022/12/02 05:09:27;;;;;;;0.43;0.20;;;;;;;;;;4994351;28;20073;-87
2022/12/02 05:11:53;;;;;;;0.00;0.00;;;;;;;;;;4996157;28;20046;-89
2022/12/02 05:14:19;;;;;;;0.00;0.00;;;;;;;;;;4996339;28;20038;-87
2022/12/02 05:16:45;;;;;;;0.00;0.00;;;;;;;;;;4996181;28;20047;-88
2022/12/02 05:19:10;;;;;;;0.00;0.00;;;;;;;;;;4996669;28;20065;-89
2022/12/02 05:21:36;;;;;;;0.00;0.00;;;;;;;;;;4996414;28;20045;-88
2022/12/02 05:24:03;;;;;;;0.00;0.00;;;;;;;;;;4996253;28;20050;-89
2022/12/02 05:26:28;;;;;;;0.00;0.00;;;;;;;;;;4996178;28;20199;-88
2022/12/02 05:28:54;;;;;;;0.00;0.00;;;;;;;;;;4996386;28;20136;-88
2022/12/02 05:31:20;;;;;;;0.00;0.00;;;;;;;;;;4995966;28;20045;-88
2022/12/02 05:33:46;;;;;;;0.20;0.10;;;;;;;;;;4996089;28;20093;-89
2022/12/02 05:36:13;;;;;;;0.00;0.00;;;;;;;;;;4995776;28;20442;-88
2022/12/02 05:38:40;;;;;;;0.00;0.00;;;;;;;;;;4996159;28;20069;-88
2022/12/02 05:41:06;;;;;;;0.00;0.00;;;;;;;;;;4996120;28;20060;-87
2022/12/02 05:43:39;;;;;;;0.00;0.00;;;;;;;;;;4995862;28;20478;-89
2022/12/02 05:46:16;;;;;;;0.47;0.47;;;;;;;;;;4997130;28;20120;-90
2022/12/02 05:48:42;;;;;;;0.00;0.00;;;;;;;;;;4995704;28;20042;-89
2022/12/02 05:51:28;;;;;;;0.00;0.00;;;;;;;;;;4995810;28;20065;-88
2022/12/02 05:53:54;;;;;;;0.00;0.00;;;;;;;;;;4995393;28;20117;-88
2022/12/02 05:56:25;;;;;;;0.00;0.00;;;;;;;;;;4995470;28;20126;-87
2022/12/02 05:58:51;;;;;;;0.00;0.00;;;;;;;;;;4995587;28;20483;-87
2022/12/02 06:01:31;;;;;;;0.00;0.00;;;;;;;;;;4995542;28;20128;-88
2022/12/02 06:03:58;;;;;;;0.00;0.00;;;;;;;;;;4995688;28;20085;-88
2022/12/02 06:06:27;;;;;;;0.00;0.00;;;;;;;;;;4995343;28;20046;-89
2022/12/02 06:08:54;;;;;;;0.00;0.00;;;;;;;;;;4995485;28;20042;-88
2022/12/02 06:11:23;;;;;;;0.00;0.00;;;;;;;;;;4995020;28;20494;-87
2022/12/02 06:13:49;;;;;;;0.00;0.00;;;;;;;;;;4995604;28;20046;-88
2022/12/02 06:16:23;;;;;;;0.00;0.00;;;;;;;;;;4994983;28;20571;-89
2022/12/02 06:18:49;;;;;;;0.00;0.00;;;;;;;;;;4995163;28;20042;-87
2022/12/02 06:21:17;;;;;;;0.00;0.00;;;;;;;;;;4995007;28;20038;-88
2022/12/02 06:23:45;;;;;;;0.90;0.43;;;;;;;;;;4995165;28;20448;-88
2022/12/02 06:26:15;;;;;;;0.00;0.00;;;;;;;;;;4994717;28;20039;-87
2022/12/02 06:28:43;;;;;;;0.00;0.00;;;;;;;;;;4995110;28;20049;-88
2022/12/02 06:31:30;;;;;;;0.00;0.00;;;;;;;;;;4995268;28;20045;-89
2022/12/02 06:33:57;;;;;;;0.00;0.00;;;;;;;;;;4995283;28;20046;-88
2022/12/02 06:36:25;;;;;;;0.00;0.00;;;;;;;;;;4994924;28;20076;-88
2022/12/02 06:38:56;;;;;;;0.00;0.00;;;;;;;;;;4994751;28;20053;-88
2022/12/02 06:41:27;;;;;;;0.00;0.00;;;;;;;;;;4994798;28;20049;-88
2022/12/02 06:46:42;;;;;;;0.00;0.00;;;;;;;;;;4995010;28;20054;-89
2022/12/02 06:49:25;;;;;;;0.00;0.00;;;;;;;;;;4994530;28;20053;-88
2022/12/02 06:51:55;;;;;;;0.00;0.00;;;;;;;;;;4994394;28;20042;-88
2022/12/02 06:54:22;;;;;;;0.00;0.00;;;;;;;;;;4994651;28;20035;-88
2022/12/02 06:56:49;;;;;;;0.00;0.00;;;;;;;;;;4994202;28;20051;-88
2022/12/02 06:59:16;;;;;;;0.00;0.00;;;;;;;;;;4994201;28;20051;-89
2022/12/02 07:01:42;;;;;;;0.00;0.00;;;;;;;;;;4994331;28;20131;-89
2022/12/02 07:04:08;;;;;;;0.45;0.00;;;;;;;;;;4994559;28;20042;-90
2022/12/02 07:06:39;;;;;;;0.00;0.00;;;;;;;;;;4994508;28;20064;-89
2022/12/02 07:09:16;;;;;;;0.17;0.00;;;;;;;;;;4994298;28;20042;-88
2022/12/02 07:11:49;;;;;;;0.00;0.00;;;;;;;;;;4995131;28;20380;-88
2022/12/02 07:14:27;;;;;;;0.00;0.00;;;;;;;;;;4994140;28;20407;-88
2022/12/02 07:16:54;;;;;;;0.00;0.00;;;;;;;;;;4993996;28;20435;-89
2022/12/02 07:19:22;;;;;;;0.52;0.13;;;;;;;;;;4994292;28;20129;-89
2022/12/02 07:21:48;;;;;;;0.00;0.00;;;;;;;;;;4993936;28;20043;-87
2022/12/02 07:24:14;;;;;;;0.00;0.00;;;;;;;;;;4974329;28;20178;-89
2022/12/02 07:26:41;;;;;;;0.40;0.20;;;;;;;;;;4974076;28;20093;-89
2022/12/02 07:29:10;;;;;;;0.88;0.25;;;;;;;;;;4974397;28;20496;-90
2022/12/02 07:31:37;;;;;;;0.00;0.00;;;;;;;;;;4974285;28;20043;-92
2022/12/02 07:34:03;;;;;;;0.00;0.00;;;;;;;;;;4974847;28;20103;-90
2022/12/02 07:36:29;;;;;;;2.13;0.93;;;;;;;;;;4974745;28;20115;-90
2022/12/02 07:38:55;;;;;;;0.00;0.00;;;;;;;;;;4974586;28;20554;-89
2022/12/02 07:41:24;;;;;;;0.00;0.00;;;;;;;;;;4974340;28;20043;-88
2022/12/02 07:43:50;;;;;;;0.00;0.00;;;;;;;;;;4958785;28;20108;-90
2022/12/02 07:46:16;;;;;;;0.52;0.35;;;;;;;;;;4974289;28;20039;-88
2022/12/02 07:48:42;;;;;;;0.00;0.00;;;;;;;;;;4957935;28;20488;-87
2022/12/02 07:51:08;;;;;;;0.55;0.10;;;;;;;;;;4974466;28;20093;-87
2022/12/02 07:53:34;;;;;;;3.10;0.20;;;;;;;;;;4957923;28;20130;-88
2022/12/02 07:56:00;;;;;;;0.43;0.43;;;;;;;;;;4975130;28;20103;-90
2022/12/02 07:58:26;;;;;;;0.47;0.10;;;;;;;;;;4957637;28;20047;-89
2022/12/02 08:00:52;;;;;;;0.00;0.00;;;;;;;;;;4957967;28;20101;-90
2022/12/02 08:03:18;;;;;;;0.00;0.00;;;;;;;;;;4974303;28;20046;-89
2022/12/02 08:05:44;;;;;;;0.00;0.00;;;;;;;;;;4974021;28;20035;-90
2022/12/02 08:08:10;;;;;;;0.35;0.17;;;;;;;;;;4957345;28;20122;-91
2022/12/02 08:10:36;;;;;;;0.32;0.17;;;;;;;;;;4957905;28;20043;-89
2022/12/02 08:13:02;;;;;;;0.00;0.00;;;;;;;;;;4973906;28;20082;-92
2022/12/02 08:15:28;;;;;;;0.30;0.10;;;;;;;;;;4957559;28;20042;-89
2022/12/02 08:17:55;;;;;;;0.10;0.10;;;;;;;;;;4957380;28;20512;-89
2022/12/02 08:20:21;;;;;;;4.05;1.20;;;;;;;;;;4957374;28;20046;-88
2022/12/02 08:22:47;;;;;;;0.00;0.00;;;;;;;;;;4973384;28;20100;-91
2022/12/02 08:25:13;;;;;;;0.00;0.00;;;;;;;;;;4958549;28;20114;-88
2022/12/02 08:27:39;;;;;;;2.38;2.17;;;;;;;;;;4973504;28;20049;-87
2022/12/02 08:30:07;;;;;;;0.00;0.00;;;;;;;;;;4982269;28;20065;-87
2022/12/02 08:32:33;;;;;;;0.00;0.00;;;;;;;;;;4993221;28;20042;-89
2022/12/02 08:34:59;;;;;;;0.00;0.00;;;;;;;;;;4992955;28;20042;-88
2022/12/02 08:37:25;;;;;;;0.00;0.00;;;;;;;;;;4992723;28;20044;-89
2022/12/02 08:39:51;;;;;;;0.00;0.00;;;;;;;;;;4993146;28;20503;-89
2022/12/02 08:42:17;;;;;;;0.00;0.00;;;;;;;;;;4993398;28;20046;-89
2022/12/02 08:44:43;;;;;;;1.58;1.48;;;;;;;;;;4992049;28;20440;-89
2022/12/02 08:47:09;;;;;;;0.00;0.00;;;;;;;;;;4993121;28;20081;-90
2022/12/02 08:49:35;;;;;;;0.50;0.13;;;;;;;;;;4992735;28;20043;-89
2022/12/02 08:52:02;;;;;;;0.00;0.00;;;;;;;;;;4992906;28;20092;-88
2022/12/02 08:54:28;;;;;;;0.75;0.00;;;;;;;;;;4992308;28;20038;-87
2022/12/02 08:56:55;;;;;;;0.00;0.00;;;;;;;;;;4992794;28;20048;-88
2022/12/02 08:59:26;;;;;;;0.13;0.10;;;;;;;;;;4992230;28;20051;-89
2022/12/02 09:01:53;;;;;;;0.00;0.00;;;;;;;;;;4992935;28;20100;-88
2022/12/02 09:04:22;;;;;;;0.00;0.00;;;;;;;;;;4992771;28;20038;-88
2022/12/02 09:06:49;;;;;;;0.00;0.00;;;;;;;;;;4992552;28;20042;-88
2022/12/02 09:09:16;;;;;;;0.00;0.00;;;;;;;;;;4993198;28;20065;-87
2022/12/02 09:11:42;;;;;;;0.43;0.22;;;;;;;;;;4975996;28;20065;-87
2022/12/02 09:14:11;;;;;;;0.55;0.40;;;;;;;;;;4992215;28;20049;-88
2022/12/02 09:16:37;;;;;;;0.00;0.00;;;;;;;;;;4992914;28;20133;-87
2022/12/02 09:19:04;;;;;;;0.47;0.30;;;;;;;;;;4988416;28;20077;-88
2022/12/02 09:21:30;;;;;;;0.00;0.00;;;;;;;;;;5006922;28;20034;-87
2022/12/02 09:23:58;;;;;;;0.00;0.00;;;;;;;;;;4991937;28;20513;-89
2022/12/02 09:26:25;;;;;;;0.00;0.00;;;;;;;;;;4992655;28;20054;-88
2022/12/02 09:28:52;;;;;;;0.00;0.00;;;;;;;;;;4992198;28;20506;-88
2022/12/02 09:31:19;;;;;;;0.00;0.00;;;;;;;;;;4992215;28;20487;-86
2022/12/02 09:33:45;;;;;;;0.00;0.00;;;;;;;;;;4992045;28;20053;-88
2022/12/02 09:36:11;;;;;;;0.00;0.00;;;;;;;;;;4992095;28;20043;-88
2022/12/02 09:38:37;;;;;;;0.55;0.55;;;;;;;;;;4992324;28;20062;-89
2022/12/02 09:41:03;;;;;;;0.00;0.00;;;;;;;;;;4992068;28;20531;-91
2022/12/02 09:43:30;;;;;;;0.00;0.00;;;;;;;;;;4992518;28;20462;-89
2022/12/02 09:45:56;;;;;;;0.20;0.20;;;;;;;;;;4992457;28;20131;-88
2022/12/02 09:48:22;;;;;;;0.00;0.00;;;;;;;;;;4991829;28;20046;-89
2022/12/02 09:50:49;;;;;;;0.00;0.00;;;;;;;;;;4978448;28;20047;-87
2022/12/02 09:53:15;;;;;;;0.00;0.00;;;;;;;;;;4972547;28;20388;-86
2022/12/02 09:55:43;;;;;;;0.17;0.05;;;;;;;;;;4974721;28;20038;-88
2022/12/02 09:58:17;;;;;;;0.00;0.00;;;;;;;;;;4976181;28;20463;-87
2022/12/02 10:00:44;;;;;;;0.00;0.00;;;;;;;;;;4976334;28;20555;-88
2022/12/02 10:03:11;;;;;;;0.00;0.00;;;;;;;;;;4959869;28;20086;-88
2022/12/02 10:05:37;;;;;;;1.55;1.45;;;;;;;;;;4959752;28;20551;-89
2022/12/02 10:08:04;;;;;;;0.00;0.00;;;;;;;;;;4959833;28;20043;-88
2022/12/02 10:10:35;;;;;;;0.10;0.10;;;;;;;;;;4959982;28;20046;-87
2022/12/02 10:13:02;;;;;;;0.00;0.00;;;;;;;;;;4959879;28;20043;-90
2022/12/02 10:15:30;;;;;;;0.00;0.00;;;;;;;;;;4959704;28;20058;-86
2022/12/02 10:17:57;;;;;;;1.02;0.30;;;;;;;;;;4975775;28;20050;-86
2022/12/02 10:20:27;;;;;;;0.00;0.00;;;;;;;;;;4975819;28;20515;-86
2022/12/02 10:23:05;;;;;;;0.15;0.03;;;;;;;;;;4960564;28;20042;-87
2022/12/02 10:25:31;;;;;;;0.00;0.00;;;;;;;;;;4975914;28;20105;-86
2022/12/02 10:27:57;;;;;;;0.00;0.00;;;;;;;;;;4975799;28;20443;-89
2022/12/02 10:30:25;;;;;;;0.30;0.25;;;;;;;;;;4959505;28;20403;-87
2022/12/02 10:33:05;;;;;;;0.00;0.00;;;;;;;;;;4959212;28;20121;-90
2022/12/02 10:35:50;;;;;;;0.00;0.00;;;;;;;;;;4959402;28;20101;-87
2022/12/02 10:38:36;;;;;;;0.00;0.00;;;;;;;;;;4959295;28;20126;-88
2022/12/02 10:41:02;;;;;;;;;;;;;;;;;;4959679;28;20073;-89
2022/12/02 10:43:28;;;;;;;0.00;0.00;;;;;;;;;;4975381;28;20039;-85
2022/12/02 10:45:57;;;;;;;3.42;1.08;;;;;;;;;;4959074;28;20155;-88
2022/12/02 10:48:23;;;;;;;0.00;0.00;;;;;;;;;;4975201;28;20046;-88
2022/12/02 10:50:49;;;;;;;0.00;0.00;;;;;;;;;;4975123;28;20121;-87
2022/12/02 10:53:17;;;;;;;0.60;0.30;;;;;;;;;;4959612;28;20101;-88
2022/12/02 10:55:44;;;;;;;0.00;0.00;;;;;;;;;;4959281;28;20506;-89
2022/12/02 10:58:16;;;;;;;0.00;0.00;;;;;;;;;;4959039;28;20038;-87
2022/12/02 11:00:42;;;;;;;0.00;0.00;;;;;;;;;;4972432;28;20134;-88
2022/12/02 11:03:07;;;;;;;0.00;0.00;;;;;;;;;;4975337;28;20119;-87
2022/12/02 11:05:34;;;;;;;0.00;0.00;;;;;;;;;;4975069;28;20047;-87
2022/12/02 11:08:02;;;;;;;0.00;0.00;;;;;;;;;;4959502;28;20046;-90
2022/12/02 11:10:33;;;;;;;0.00;0.00;;;;;;;;;;4975345;28;20086;-88
2022/12/02 11:13:04;;;;;;;0.00;0.00;;;;;;;;;;4974972;28;20042;-88
2022/12/02 11:15:33;;;;;;;1.85;0.65;;;;;;;;;;4959903;28;20039;-88
2022/12/02 11:17:59;;;;;;;0.00;0.00;;;;;;;;;;4974669;28;20125;-88
2022/12/02 11:20:31;;;;;;;0.35;0.28;;;;;;;;;;4958600;28;20042;-89
2022/12/02 11:23:00;;;;;;;0.45;0.17;;;;;;;;;;4974601;28;20507;-92
2022/12/02 11:25:42;;;;;;;2.92;0.65;;;;;;;;;;4974653;28;20511;-92
2022/12/02 11:28:17;;;;;;;0.10;0.10;;;;;;;;;;4974522;28;20046;-87
2022/12/02 11:30:43;;;;;;;0.00;0.00;;;;;;;;;;4974235;28;20053;-88
2022/12/02 11:33:10;;;;;;;0.00;0.00;;;;;;;;;;4974382;28;20039;-87
2022/12/02 11:35:54;;;;;;;0.00;0.00;;;;;;;;;;4974105;28;20130;-89
2022/12/02 11:38:23;;;;;;;0.25;0.00;;;;;;;;;;4974401;28;20039;-88
2022/12/02 11:40:49;;;;;;;0.20;0.20;;;;;;;;;;4958157;28;20054;-89
2022/12/02 11:43:34;;;;;;;0.00;0.00;;;;;;;;;;4974561;28;20531;-88
2022/12/02 11:46:02;;;;;;;0.00;0.00;;;;;;;;;;4974018;28;20546;-88
2022/12/02 11:48:28;;;;;;;0.22;0.17;;;;;;;;;;4974227;28;20129;-87
2022/12/02 11:50:54;;;;;;;0.00;0.00;;;;;;;;;;4958141;28;20511;-87
2022/12/02 11:53:22;;;;;;;0.38;0.28;;;;;;;;;;4974144;28;20054;-88
2022/12/02 11:55:52;;;;;;;0.00;0.00;;;;;;;;;;4957729;28;20049;-88
2022/12/02 11:58:27;;;;;;;0.20;0.00;;;;;;;;;;4974269;28;20038;-93
2022/12/02 12:01:04;;;;;;;0.28;0.28;;;;;;;;;;4957641;28;20106;-87
2022/12/02 12:03:31;;;;;;;0.73;0.50;;;;;;;;;;4974545;28;20047;-89
2022/12/02 12:06:05;;;;;;;0.00;0.00;;;;;;;;;;4958105;28;20121;-89
2022/12/02 12:08:31;;;;;;;0.65;0.65;;;;;;;;;;4957645;28;20416;-88
2022/12/02 12:11:17;;;;;;;0.63;0.17;;;;;;;;;;4957701;28;20536;-88
2022/12/02 12:14:01;;;;;;;0.00;0.00;;;;;;;;;;4974167;28;20053;-87
2022/12/02 12:16:31;;;;;;;0.40;0.28;;;;;;;;;;4973695;28;20521;-88
2022/12/02 12:18:58;;;;;;;0.40;0.05;;;;;;;;;;4957582;28;20061;-92
2022/12/02 12:21:31;;;;;;;0.20;0.10;;;;;;;;;;4956317;28;20451;-88
2022/12/02 12:24:20;;;;;;;0.75;0.60;;;;;;;;;;4988882;28;20051;-88
2022/12/02 12:26:46;;;;;;;0.05;0.05;;;;;;;;;;4973460;28;20039;-88
2022/12/02 12:29:12;;;;;;;0.00;0.00;;;;;;;;;;4973479;28;20057;-88
2022/12/02 12:31:38;;;;;;;0.00;0.00;;;;;;;;;;4973266;28;20101;-88
2022/12/02 12:34:04;;;;;;;1.02;0.65;;;;;;;;;;4973157;28;20042;-87
2022/12/02 12:36:30;;;;;;;0.38;0.20;;;;;;;;;;4956979;28;20121;-87
2022/12/02 12:38:58;;;;;;;0.00;0.00;;;;;;;;;;4973174;28;20146;-88
2022/12/02 12:41:24;;;;;;;0.00;0.00;;;;;;;;;;4973198;28;20058;-87
2022/12/02 12:43:50;;;;;;;0.00;0.00;;;;;;;;;;4973697;28;20420;-86
2022/12/02 12:46:16;;;;;;;0.00;0.00;;;;;;;;;;4973391;28;20049;-86
2022/12/02 12:48:42;;;;;;;0.13;0.00;;;;;;;;;;4956888;28;20078;-89
2022/12/02 12:51:10;;;;;;;0.00;0.00;;;;;;;;;;4957106;28;20074;-87
2022/12/02 12:53:36;;;;;;;0.28;0.28;;;;;;;;;;4973011;28;20392;-88
2022/12/02 12:56:03;;;;;;;0.00;0.00;;;;;;;;;;4972844;28;20042;-87
2022/12/02 12:58:29;;;;;;;0.15;0.08;;;;;;;;;;4956747;28;20043;-87
2022/12/02 13:00:55;;;;;;;0.00;0.00;;;;;;;;;;4973089;28;20038;-88
2022/12/02 13:03:21;;;;;;;0.00;0.00;;;;;;;;;;4957270;28;20126;-89
2022/12/02 13:05:47;;;;;;;0.03;0.03;;;;;;;;;;4973052;28;20042;-88
2022/12/02 13:08:13;;;;;;;0.00;0.00;;;;;;;;;;4972966;28;20503;-87
2022/12/02 13:10:39;;;;;;;0.35;0.22;;;;;;;;;;4972530;28;20042;-89
2022/12/02 13:13:06;;;;;;;0.80;0.55;;;;;;;;;;4973000;28;20046;-85
2022/12/02 13:15:32;;;;;;;0.00;0.00;;;;;;;;;;4972508;28;20725;-86
2022/12/02 13:17:58;;;;;;;0.00;0.00;;;;;;;;;;4973032;28;20070;-87
2022/12/02 13:20:24;;;;;;;0.00;0.00;;;;;;;;;;4972399;28;20047;-87
2022/12/02 13:22:50;;;;;;;0.00;0.00;;;;;;;;;;4956653;28;20074;-87
2022/12/02 13:25:16;;;;;;;0.17;0.13;;;;;;;;;;4956840;28;20074;-87
2022/12/02 13:27:42;;;;;;;0.00;0.00;;;;;;;;;;4955221;28;20385;-86
2022/12/02 13:30:10;;;;;;;0.00;0.00;;;;;;;;;;4973648;28;20580;-88
2022/12/02 13:32:36;;;;;;;5.80;1.35;;;;;;;;;;4959722;28;20053;-87
2022/12/02 13:35:02;;;;;;;0.00;0.00;;;;;;;;;;4960689;28;20046;-87
2022/12/02 13:37:28;;;;;;;0.00;0.00;;;;;;;;;;4976267;28;20079;-87
2022/12/02 13:39:54;;;;;;;0.00;0.00;;;;;;;;;;4960420;28;20085;-88
2022/12/02 13:42:20;;;;;;;0.52;0.52;;;;;;;;;;4976223;28;20065;-88
2022/12/02 13:44:46;;;;;;;0.00;0.00;;;;;;;;;;4976342;28;20034;-87
2022/12/02 13:47:12;;;;;;;0.25;0.25;;;;;;;;;;4973784;28;20503;-87
2022/12/02 13:49:38;;;;;;;0.00;0.00;;;;;;;;;;4975811;28;20129;-87
2022/12/02 13:52:04;;;;;;;0.52;0.10;;;;;;;;;;4976125;28;20047;-87
2022/12/02 13:54:31;;;;;;;0.00;0.00;;;;;;;;;;4976323;28;20053;-87
2022/12/02 13:56:57;;;;;;;0.00;0.00;;;;;;;;;;4959796;28;20077;-87
2022/12/02 13:59:23;;;;;;;0.00;0.00;;;;;;;;;;4975969;28;20412;-88
2022/12/02 14:01:49;;;;;;;1.73;0.45;;;;;;;;;;4959883;28;20049;-87
2022/12/02 14:04:15;;;;;;;0.00;0.00;;;;;;;;;;4976307;28;20051;-87
2022/12/02 14:06:43;;;;;;;2.30;0.10;;;;;;;;;;4954078;28;20101;-90
2022/12/02 14:09:09;;;;;;;0.43;0.05;;;;;;;;;;4960024;28;20451;-89
2022/12/02 14:11:35;;;;;;;0.00;0.00;;;;;;;;;;4975774;28;20575;-88
2022/12/02 14:14:02;;;;;;;0.30;0.28;;;;;;;;;;4976157;28;20042;-87
2022/12/02 14:16:28;;;;;;;0.00;0.00;;;;;;;;;;4975855;28;20054;-89
2022/12/02 14:18:55;;;;;;;0.52;0.20;;;;;;;;;;4975796;28;20121;-89
2022/12/02 14:21:21;;;;;;;0.43;0.43;;;;;;;;;;4976353;28;20105;-88
2022/12/02 14:23:47;;;;;;;0.00;0.00;;;;;;;;;;4975783;28;20599;-86
2022/12/02 14:26:13;;;;;;;0.57;0.10;;;;;;;;;;4975805;28;20094;-87
2022/12/02 14:28:40;;;;;;;0.45;0.35;;;;;;;;;;4975777;28;20074;-88
2022/12/02 14:31:06;;;;;;;0.45;0.20;;;;;;;;;;4976104;28;20523;-88
2022/12/02 14:33:32;;;;;;;0.20;0.20;;;;;;;;;;4975803;28;20519;-88
2022/12/02 14:35:59;;;;;;;0.00;0.00;;;;;;;;;;4975713;28;20042;-88
2022/12/02 14:38:25;;;;;;;0.32;0.17;;;;;;;;;;4975049;28;20488;-87
2022/12/02 14:40:51;;;;;;;0.75;0.38;;;;;;;;;;4974689;28;20126;-88
2022/12/02 14:43:17;;;;;;;0.10;0.10;;;;;;;;;;4974678;28;20562;-89
2022/12/02 14:45:43;;;;;;;0.00;0.00;;;;;;;;;;4975892;28;20042;-89
2022/12/02 14:48:09;;;;;;;0.17;0.05;;;;;;;;;;4975212;28;20046;-87
2022/12/02 14:50:35;;;;;;;0.73;0.30;;;;;;;;;;4976077;28;20085;-88